Hundvaag 1 weather for Aug 2005
Month no. 218
Obs.
Da.
Temp. Dew Point Precip. Wind
Speed
Wind gusts Cloud cover Press. Humidity Wind dir. Sunny OPT
01.08.2005 12,8   3,9 1,3   2 1009,8 89,0 337,5   70,0 %
02.08.2005 10,6   0,0 2,2   4 1016,6 75,0 337,5 1 75,0 %
03.08.2005 12,2   0,0 1,8   4 1012,9 81,0 180,0 1 75,0 %
04.08.2005 11,1   18,0 1,8   0 1013,5 87,0 270,0 1 50,0 %
05.08.2005 10,6   13,5 2,2   0 1011,5 81,0 225,0   55,0 %
06.08.2005 11,1   1,0 3,1   3 1010,5 76,0 337,5 1 72,5 %
07.08.2005 11,7   2,9 2,2   3 1006,8 68,0 337,5 1 72,5 %
08.08.2005 12,2   0,3 1,8   4 1009,1 81,0 315,0 1 75,0 %
09.08.2005 12,2   3,0 1,8   2 1010,2 75,0 337,5   67,5 %
10.08.2005 11,7   0,0 2,2   4 1005,8 90,0 0,0 1 75,0 %
11.08.2005 11,7   1,8 4,0   2 1005,1 92,0 0,0 1 67,5 %
12.08.2005 11,1   1,0 4,5   3 1007,5 81,0 0,0 1 70,0 %
13.08.2005 10,6   0,0 3,1   4 1010,8 80,0 0,0 1 75,0 %
14.08.2005 11,7   0,0 0,9   4 1015,6 60,0 315,0 1 75,0 %
15.08.2005 11,1   0,0 1,3   4 1019,6 79,0 315,0 1 75,0 %
16.08.2005 10,0   0,0 1,8   4 1016,9 84,0 270,0 1 75,0 %
17.08.2005 13,3   0,0 2,7   4 1022,4 77,0 270,0 1 77,5 %
18.08.2005 14,4   0,0 3,1   4 1020,3 76,0 180,0 1 77,5 %
19.08.2005 16,1   0,0 0,4   4 1018,3 77,0 337,5 1 80,0 %
20.08.2005 14,4   9,5 0,9   0 1018,3 64,0 315,0   60,0 %
21.08.2005 13,9   0,0 0,4   4 1016,9 85,0 202,5 1 77,5 %
22.08.2005 15,0   0,0 1,8   4 1012,9 100,0 337,5 1 80,0 %
23.08.2005 12,2   4,0 1,8   4 1012,2 79,0 337,5   72,5 %
24.08.2005 11,1   1,0 4,9   4 997,3 86,0 180,0 1 72,5 %
25.08.2005 10,0   43,1 1,8   0 997,0 78,0 180,0   40,0 %
26.08.2005 8,9   0,9 1,8   3 1000,3 80,0   1 70,0 %
27.08.2005 8,9   16,6 1,8   0 1007,8 75,0 202,5   50,0 %
28.08.2005 10,6   2,3 2,2   3 1008,8 90,0 202,5 1 72,5 %
29.08.2005 12,8   12,6 3,6   0 1007,1 82,0 202,5   57,5 %
30.08.2005 10,6   2,5 1,3   3 1021,3 76,0 292,5 1 72,5 %
31.08.2005 12,2   0,0 2,7   4 1018,3 64,0 202,5   75,0 %
Avrg/Sum 11,8   137,9 2,2   2,8 1011,7 79,6 234,0 22 69,7 %